createdAt,value
2023-02-11T00:00:37.038Z,3.13
2023-02-11T00:01:37.019Z,3.13
2023-02-11T00:02:37.127Z,3.13
2023-02-11T00:03:37.048Z,3.13
2023-02-11T00:04:36.989Z,3.12
2023-02-11T00:05:36.970Z,3.10
2023-02-11T00:06:36.969Z,3.12
2023-02-11T00:07:36.940Z,3.10
2023-02-11T00:08:36.964Z,3.13
2023-02-11T00:09:36.916Z,3.13
2023-02-11T00:10:36.924Z,3.13
2023-02-11T00:11:36.904Z,3.13
2023-02-11T00:12:36.896Z,3.12
2023-02-11T00:13:36.857Z,3.10
2023-02-11T00:14:36.854Z,3.08
2023-02-11T00:15:36.846Z,3.10
2023-02-11T00:16:36.930Z,3.10
2023-02-11T00:17:36.958Z,3.08
2023-02-11T00:18:36.854Z,3.10
2023-02-11T00:19:36.793Z,3.12
2023-02-11T00:20:36.782Z,3.10
2023-02-11T00:21:36.770Z,3.10
2023-02-11T00:22:36.763Z,3.12
2023-02-11T00:23:36.759Z,3.12
2023-02-11T00:24:36.732Z,3.13
2023-02-11T00:25:36.738Z,3.12
2023-02-11T00:26:36.716Z,3.15
2023-02-11T00:27:36.688Z,3.16
2023-02-11T00:28:36.734Z,3.17
2023-02-11T00:29:36.660Z,3.19
2023-02-11T00:30:36.753Z,3.19
2023-02-11T00:31:36.811Z,3.20
2023-02-11T00:32:36.631Z,3.20
2023-02-11T00:33:36.634Z,3.20
2023-02-11T00:34:36.615Z,3.22
2023-02-11T00:35:36.574Z,3.22
2023-02-11T00:36:36.583Z,3.23
2023-02-11T00:37:36.545Z,3.23
2023-02-11T00:38:36.545Z,3.22
2023-02-11T00:39:36.513Z,3.23
2023-02-11T00:40:36.513Z,3.25
2023-02-11T00:41:36.536Z,3.25
2023-02-11T00:42:36.501Z,3.25
2023-02-11T00:43:36.471Z,3.25
2023-02-11T00:44:36.482Z,3.26
2023-02-11T00:45:36.449Z,3.26
2023-02-11T00:46:36.474Z,3.26
2023-02-11T00:47:36.433Z,3.28
2023-02-11T00:48:36.437Z,3.30
2023-02-11T00:49:36.441Z,3.30
2023-02-11T00:50:36.389Z,3.30
2023-02-11T00:51:36.392Z,3.33
2023-02-11T00:52:36.392Z,3.31
2023-02-11T00:53:36.378Z,3.34
2023-02-11T00:54:36.337Z,3.35
2023-02-11T00:55:36.331Z,3.39
2023-02-11T00:56:36.317Z,3.39
2023-02-11T00:57:36.310Z,3.41
2023-02-11T00:58:36.299Z,3.42
2023-02-11T00:59:36.294Z,3.42
2023-02-11T01:00:36.275Z,3.44
2023-02-11T01:01:36.324Z,3.44
2023-02-11T01:02:36.257Z,3.44
2023-02-11T01:03:36.233Z,3.45
2023-02-11T01:04:36.218Z,3.45
2023-02-11T01:05:36.264Z,3.46
2023-02-11T01:06:36.197Z,3.49
2023-02-11T01:07:36.187Z,3.49
2023-02-11T01:08:36.166Z,3.49
2023-02-11T01:09:36.159Z,3.52
2023-02-11T01:10:36.162Z,3.53
2023-02-11T01:11:36.146Z,3.53
2023-02-11T01:12:36.639Z,3.54
2023-02-11T01:13:36.115Z,3.54
2023-02-11T01:14:36.085Z,3.56
2023-02-11T01:15:36.148Z,3.59
2023-02-11T01:16:36.072Z,3.59
2023-02-11T01:17:36.065Z,3.59
2023-02-11T01:18:36.044Z,3.59
2023-02-11T01:19:36.035Z,3.59
2023-02-11T01:20:36.659Z,3.59
2023-02-11T01:21:36.139Z,3.59
2023-02-11T01:22:35.995Z,3.62
2023-02-11T01:23:36.032Z,3.62
2023-02-11T01:24:35.977Z,3.63
2023-02-11T01:25:35.991Z,3.67
2023-02-11T01:26:35.958Z,3.67
2023-02-11T01:27:35.944Z,3.70
2023-02-11T01:28:35.940Z,3.70
2023-02-11T01:29:35.921Z,3.71
2023-02-11T01:30:35.894Z,3.72
2023-02-11T01:31:36.070Z,3.74
2023-02-11T01:32:35.873Z,3.75
2023-02-11T01:33:35.887Z,3.75
2023-02-11T01:34:35.843Z,3.77
2023-02-11T01:35:35.847Z,3.78
2023-02-11T01:36:35.831Z,3.78
2023-02-11T01:37:35.817Z,3.81
2023-02-11T01:38:35.789Z,3.84
2023-02-11T01:39:35.789Z,3.84
2023-02-11T01:40:35.776Z,3.84
2023-02-11T01:41:35.861Z,3.86
2023-02-11T01:42:35.745Z,3.88
2023-02-11T01:43:35.757Z,3.86
2023-02-11T01:44:35.731Z,3.86
2023-02-11T01:45:35.708Z,3.88
2023-02-11T01:46:35.963Z,3.88
2023-02-11T01:47:35.690Z,3.88
2023-02-11T01:48:35.667Z,3.86
2023-02-11T01:49:35.678Z,3.89
2023-02-11T01:50:35.638Z,3.90
2023-02-11T01:51:35.668Z,3.90
2023-02-11T01:52:35.697Z,3.90
2023-02-11T01:53:35.629Z,3.93
2023-02-11T01:54:35.629Z,3.93
2023-02-11T01:55:35.600Z,3.95
2023-02-11T01:56:35.577Z,3.93
2023-02-11T01:57:35.566Z,3.93
2023-02-11T01:58:35.553Z,3.95
2023-02-11T01:59:35.541Z,3.93
2023-02-11T02:00:35.526Z,3.96
2023-02-11T02:01:35.679Z,3.96
2023-02-11T02:02:35.501Z,3.98
2023-02-11T02:03:35.517Z,3.95
2023-02-11T02:04:35.476Z,3.99
2023-02-11T02:05:35.487Z,3.99
2023-02-11T02:06:35.453Z,4.00
2023-02-11T02:07:35.445Z,4.00
2023-02-11T02:08:35.435Z,4.00
2023-02-11T02:09:35.427Z,4.02
2023-02-11T02:10:35.391Z,4.07
2023-02-11T02:11:35.401Z,4.04
2023-02-11T02:12:35.360Z,4.02
2023-02-11T02:13:35.369Z,4.04
2023-02-11T02:14:35.339Z,4.06
2023-02-11T02:15:35.349Z,4.06
2023-02-11T02:16:35.396Z,4.06
2023-02-11T02:17:35.319Z,4.06
2023-02-11T02:18:35.295Z,4.10
2023-02-11T02:19:35.293Z,4.10
2023-02-11T02:20:35.285Z,4.10
2023-02-11T02:21:35.264Z,4.11
2023-02-11T02:22:35.239Z,4.11
2023-02-11T02:23:35.234Z,4.13
2023-02-11T02:24:35.213Z,4.14
2023-02-11T02:25:35.205Z,4.16
2023-02-11T02:26:35.203Z,4.18
2023-02-11T02:27:35.187Z,4.17
2023-02-11T02:28:35.170Z,4.17
2023-02-11T02:29:35.167Z,4.17
2023-02-11T02:30:35.154Z,4.18
2023-02-11T02:31:35.178Z,4.20
2023-02-11T02:32:35.128Z,4.20
2023-02-11T02:33:35.110Z,4.24
2023-02-11T02:34:35.089Z,4.25
2023-02-11T02:35:35.128Z,4.25
2023-02-11T02:36:35.116Z,4.24
2023-02-11T02:37:35.073Z,4.26
2023-02-11T02:38:35.049Z,4.26
2023-02-11T02:39:35.029Z,4.28
2023-02-11T02:40:35.024Z,4.31
2023-02-11T02:41:35.021Z,4.31
2023-02-11T02:42:34.986Z,4.34
2023-02-11T02:43:34.985Z,4.35
2023-02-11T02:44:34.992Z,4.35
2023-02-11T02:45:34.955Z,4.35
2023-02-11T02:46:35.039Z,4.36
2023-02-11T02:47:34.938Z,4.35
2023-02-11T02:48:34.916Z,4.36
2023-02-11T02:49:34.913Z,4.36
2023-02-11T02:50:34.902Z,4.36
2023-02-11T02:51:34.896Z,4.38
2023-02-11T02:52:34.861Z,4.42
2023-02-11T02:53:34.859Z,4.42
2023-02-11T02:54:34.942Z,4.43
2023-02-11T02:55:34.846Z,4.43
2023-02-11T02:56:34.835Z,4.46
2023-02-11T02:57:34.816Z,4.47
2023-02-11T02:58:34.788Z,4.47
2023-02-11T02:59:34.805Z,4.49
2023-02-11T03:00:34.799Z,4.49
2023-02-11T03:01:34.760Z,4.50
2023-02-11T03:02:34.749Z,4.50
2023-02-11T03:03:34.769Z,4.50
2023-02-11T03:04:34.720Z,4.53
2023-02-11T03:05:34.733Z,4.54
2023-02-11T03:06:34.680Z,4.56
2023-02-11T03:07:34.688Z,4.54
2023-02-11T03:08:34.668Z,4.54
2023-02-11T03:09:34.653Z,4.56
2023-02-11T03:10:34.630Z,4.54
2023-02-11T03:11:34.633Z,4.57
2023-02-11T03:12:34.618Z,4.61
2023-02-11T03:13:34.611Z,4.59
2023-02-11T03:14:34.582Z,4.59
2023-02-11T03:15:34.582Z,4.57
2023-02-11T03:16:34.715Z,4.59
2023-02-11T03:17:34.578Z,4.56
2023-02-11T03:18:34.527Z,4.57
2023-02-11T03:19:34.542Z,4.59
2023-02-11T03:20:34.508Z,4.61
2023-02-11T03:21:34.516Z,4.64
2023-02-11T03:22:34.488Z,4.64
2023-02-11T03:23:34.479Z,4.65
2023-02-11T03:24:34.461Z,4.65
2023-02-11T03:25:34.460Z,4.65
2023-02-11T03:26:34.441Z,4.69
2023-02-11T03:27:34.463Z,4.69
2023-02-11T03:28:34.505Z,4.69
2023-02-11T03:29:34.426Z,4.69
2023-02-11T03:30:34.393Z,4.69
2023-02-11T03:31:34.526Z,4.67
2023-02-11T03:32:34.365Z,4.65
2023-02-11T03:33:34.362Z,4.67
2023-02-11T03:34:34.334Z,4.67
2023-02-11T03:35:34.334Z,4.68
2023-02-11T03:36:34.316Z,4.69
2023-02-11T03:37:34.315Z,4.72
2023-02-11T03:38:34.294Z,4.71
2023-02-11T03:39:34.295Z,4.74
2023-02-11T03:40:34.266Z,4.72
2023-02-11T03:41:34.254Z,4.74
2023-02-11T03:42:34.255Z,4.72
2023-02-11T03:43:34.232Z,4.71
2023-02-11T03:44:34.219Z,4.72
2023-02-11T03:45:34.211Z,4.72
2023-02-11T03:46:34.203Z,4.72
2023-02-11T03:47:34.195Z,4.74
2023-02-11T03:48:34.172Z,4.74
2023-02-11T03:49:34.169Z,4.72
2023-02-11T03:50:34.144Z,4.71
2023-02-11T03:51:34.131Z,4.69
2023-02-11T03:52:34.120Z,4.69
2023-02-11T03:53:34.103Z,4.69
2023-02-11T03:54:34.088Z,4.71
2023-02-11T03:55:34.084Z,4.71
2023-02-11T03:56:34.064Z,4.72
2023-02-11T03:57:34.073Z,4.72
2023-02-11T03:58:34.031Z,4.74
2023-02-11T03:59:34.030Z,4.74
2023-02-11T04:00:34.016Z,4.75
2023-02-11T04:01:34.081Z,4.75
2023-02-11T04:02:33.998Z,4.74
2023-02-11T04:03:34.080Z,4.74
2023-02-11T04:04:33.959Z,4.74
2023-02-11T04:05:33.951Z,4.74
2023-02-11T04:06:33.928Z,4.77
2023-02-11T04:07:33.937Z,4.79
2023-02-11T04:08:33.906Z,4.79
2023-02-11T04:09:33.904Z,4.83
2023-02-11T04:10:33.885Z,4.83
2023-02-11T04:11:33.877Z,4.83
2023-02-11T04:12:33.879Z,4.83
2023-02-11T04:13:33.853Z,4.83
2023-02-11T04:14:33.826Z,4.83
2023-02-11T04:15:33.833Z,4.80
2023-02-11T04:16:33.853Z,4.79
2023-02-11T04:17:33.847Z,4.80
2023-02-11T04:18:33.781Z,4.83
2023-02-11T04:19:33.800Z,4.84
2023-02-11T04:20:33.819Z,4.83
2023-02-11T04:21:33.756Z,4.83
2023-02-11T04:22:33.741Z,4.80
2023-02-11T04:23:33.738Z,4.83
2023-02-11T04:24:33.711Z,4.80
2023-02-11T04:25:33.706Z,4.84
2023-02-11T04:26:33.689Z,4.86
2023-02-11T04:27:33.704Z,4.84
2023-02-11T04:28:33.749Z,4.86
2023-02-11T04:29:33.653Z,4.86
2023-02-11T04:30:33.632Z,4.86
2023-02-11T04:31:33.641Z,4.86
2023-02-11T04:32:33.612Z,4.88
2023-02-11T04:33:33.610Z,4.88
2023-02-11T04:34:33.590Z,4.88
2023-02-11T04:35:33.596Z,4.91
2023-02-11T04:36:33.560Z,4.93
2023-02-11T04:37:33.583Z,4.93
2023-02-11T04:38:33.569Z,4.93
2023-02-11T04:39:33.549Z,4.91
2023-02-11T04:40:33.553Z,4.91
2023-02-11T04:41:33.518Z,4.91
2023-02-11T04:42:33.486Z,4.91
2023-02-11T04:43:33.480Z,4.90
2023-02-11T04:44:33.468Z,4.90
2023-02-11T04:45:33.459Z,4.90
2023-02-11T04:46:33.502Z,4.90
2023-02-11T04:47:33.506Z,4.90
2023-02-11T04:48:33.407Z,4.88
2023-02-11T04:49:33.399Z,4.90
2023-02-11T04:50:33.406Z,4.86
2023-02-11T04:51:33.389Z,4.87
2023-02-11T04:52:33.370Z,4.86
2023-02-11T04:53:33.357Z,4.86
2023-02-11T04:54:33.336Z,4.83
2023-02-11T04:55:33.329Z,4.84
2023-02-11T04:56:33.306Z,4.84
2023-02-11T04:57:33.329Z,4.86
2023-02-11T04:58:33.285Z,4.84
2023-02-11T04:59:33.290Z,4.87
2023-02-11T05:00:33.292Z,4.86
2023-02-11T05:01:33.287Z,4.86
2023-02-11T05:02:33.241Z,4.87
2023-02-11T05:03:33.226Z,4.84
2023-02-11T05:04:33.308Z,4.84
2023-02-11T05:05:33.198Z,4.86
2023-02-11T05:06:33.197Z,4.83
2023-02-11T05:07:33.175Z,4.86
2023-02-11T05:08:33.199Z,4.86
2023-02-11T05:09:33.166Z,4.86
2023-02-11T05:10:33.151Z,4.86
2023-02-11T05:11:33.134Z,4.86
2023-02-11T05:12:33.135Z,4.84
2023-02-11T05:13:33.100Z,4.84
2023-02-11T05:14:33.090Z,4.86
2023-02-11T05:15:33.067Z,4.84
2023-02-11T05:16:33.107Z,4.84
2023-02-11T05:17:33.061Z,4.80
2023-02-11T05:18:33.048Z,4.83
2023-02-11T05:19:33.021Z,4.79
2023-02-11T05:20:33.020Z,4.77
2023-02-11T05:21:33.006Z,4.77
2023-02-11T05:22:33.008Z,4.79
2023-02-11T05:23:32.976Z,4.77
2023-02-11T05:24:32.975Z,4.79
2023-02-11T05:25:32.956Z,4.77
2023-02-11T05:26:32.949Z,4.79
2023-02-11T05:27:32.920Z,4.79
2023-02-11T05:28:32.980Z,4.77
2023-02-11T05:29:32.901Z,4.79
2023-02-11T05:30:32.945Z,4.79
2023-02-11T05:31:32.898Z,4.79
2023-02-11T05:32:32.869Z,4.79
2023-02-11T05:33:32.855Z,4.79
2023-02-11T05:34:32.846Z,4.79
2023-02-11T05:35:32.833Z,4.79
2023-02-11T05:36:33.525Z,4.79
2023-02-11T05:37:32.848Z,4.77
2023-02-11T05:38:33.344Z,4.80
2023-02-11T05:39:32.781Z,4.79
2023-02-11T05:40:32.782Z,4.80
2023-02-11T05:41:32.755Z,4.80
2023-02-11T05:42:32.766Z,4.79
2023-02-11T05:43:32.733Z,4.79
2023-02-11T05:44:32.728Z,4.83
2023-02-11T05:45:32.714Z,4.84
2023-02-11T05:46:32.762Z,4.84
2023-02-11T05:47:32.679Z,4.84
2023-02-11T05:48:32.681Z,4.86
2023-02-11T05:49:32.676Z,4.87
2023-02-11T05:50:32.661Z,4.86
2023-02-11T05:51:39.639Z,4.87
2023-02-11T05:52:32.642Z,4.88
2023-02-11T05:53:32.623Z,4.87
2023-02-11T05:54:34.318Z,4.88
2023-02-11T05:55:32.584Z,4.90
2023-02-11T05:56:32.627Z,4.90
2023-02-11T05:57:32.572Z,4.90
2023-02-11T05:58:32.557Z,4.91
2023-02-11T05:59:32.566Z,4.91
2023-02-11T06:00:32.535Z,4.91
2023-02-11T06:01:32.548Z,4.91
2023-02-11T06:02:32.612Z,4.93
2023-02-11T06:03:32.543Z,4.93
2023-02-11T06:04:32.510Z,4.94
2023-02-11T06:05:32.536Z,4.96
2023-02-11T06:06:32.477Z,4.97
2023-02-11T06:07:32.444Z,4.96
2023-02-11T06:08:32.456Z,4.97
2023-02-11T06:09:32.447Z,4.96
2023-02-11T06:10:32.434Z,4.99
2023-02-11T06:11:32.403Z,5.02
2023-02-11T06:12:32.417Z,5.04
2023-02-11T06:13:32.389Z,5.04
2023-02-11T06:14:32.362Z,5.05
2023-02-11T06:15:32.393Z,5.05
2023-02-11T06:16:32.516Z,5.05
2023-02-11T06:17:32.322Z,5.08
2023-02-11T06:18:32.330Z,5.06
2023-02-11T06:19:32.284Z,5.09
2023-02-11T06:20:32.301Z,5.09
2023-02-11T06:21:43.408Z,5.12
2023-02-11T06:22:34.573Z,5.11
2023-02-11T06:23:32.277Z,5.14
2023-02-11T06:24:58.613Z,5.14
2023-02-11T06:25:33.214Z,5.15
2023-02-11T06:26:32.266Z,5.19
2023-02-11T06:27:32.210Z,5.17
2023-02-11T06:28:32.288Z,5.17
2023-02-11T06:29:32.167Z,5.20
2023-02-11T06:30:32.193Z,5.20
2023-02-11T06:31:32.266Z,5.20
2023-02-11T06:32:47.618Z,5.20
2023-02-11T06:33:33.126Z,5.20
2023-02-11T06:34:32.137Z,5.19
2023-02-11T06:35:32.107Z,5.20
2023-02-11T06:36:32.094Z,5.19
2023-02-11T06:37:32.092Z,5.19
2023-02-11T06:38:32.103Z,5.20
2023-02-11T06:39:32.049Z,5.20
2023-02-11T06:40:32.081Z,5.22
2023-02-11T06:41:32.033Z,5.19
2023-02-11T06:42:32.018Z,5.22
2023-02-11T06:43:32.013Z,5.19
2023-02-11T06:44:31.989Z,5.19
2023-02-11T06:45:31.991Z,5.19
2023-02-11T06:46:32.140Z,5.19
2023-02-11T06:47:31.967Z,5.19
2023-02-11T06:48:31.950Z,5.20
2023-02-11T06:49:32.040Z,5.17
2023-02-11T06:50:31.930Z,5.19
2023-02-11T06:51:31.895Z,5.17
2023-02-11T06:52:31.920Z,5.17
2023-02-11T06:53:31.874Z,5.19
2023-02-11T06:54:31.884Z,5.17
2023-02-11T06:55:31.858Z,5.20
2023-02-11T06:56:31.859Z,5.20
2023-02-11T06:57:31.825Z,5.20
2023-02-11T06:58:31.839Z,5.22
2023-02-11T06:59:31.808Z,5.23
2023-02-11T07:00:31.825Z,5.23
2023-02-11T07:01:31.810Z,5.27
2023-02-11T07:02:31.836Z,5.26
2023-02-11T07:03:31.746Z,5.29
2023-02-11T07:04:31.834Z,5.29
2023-02-11T07:05:31.728Z,5.27
2023-02-11T07:06:31.795Z,5.29
2023-02-11T07:07:34.149Z,5.29
2023-02-11T07:08:31.736Z,5.29
2023-02-11T07:09:31.705Z,5.30
2023-02-11T07:10:31.681Z,5.30
2023-02-11T07:11:31.672Z,5.37
2023-02-11T07:12:31.769Z,5.37
2023-02-11T07:13:31.630Z,5.40
2023-02-11T07:14:31.798Z,5.42
2023-02-11T07:15:31.617Z,5.44
2023-02-11T07:16:31.681Z,5.48
2023-02-11T07:17:31.584Z,5.47
2023-02-11T07:18:31.595Z,5.45
2023-02-11T07:19:31.551Z,5.44
2023-02-11T07:20:31.558Z,5.45
2023-02-11T07:21:31.613Z,5.55
2023-02-11T07:22:31.566Z,5.52
2023-02-11T07:23:31.531Z,5.49
2023-02-11T07:24:31.548Z,5.52
2023-02-11T07:25:31.498Z,5.55
2023-02-11T07:26:31.520Z,5.51
2023-02-11T07:27:31.462Z,5.48
2023-02-11T07:28:31.580Z,5.45
2023-02-11T07:29:31.433Z,5.47
2023-02-11T07:30:31.462Z,5.47
2023-02-11T07:31:31.564Z,5.47
2023-02-11T07:32:31.416Z,5.47
2023-02-11T07:33:31.378Z,5.47
2023-02-11T07:34:31.451Z,5.49
2023-02-11T07:35:31.369Z,5.49
2023-02-11T07:36:31.367Z,5.52
2023-02-11T07:37:31.374Z,5.52
2023-02-11T07:38:31.398Z,5.52
2023-02-11T07:39:31.490Z,5.52
2023-02-11T07:40:31.316Z,5.52
2023-02-11T07:41:31.430Z,5.56
2023-02-11T07:42:31.303Z,5.58
2023-02-11T07:43:31.277Z,5.58
2023-02-11T07:44:31.290Z,5.58
2023-02-11T07:45:31.246Z,5.60
2023-02-11T07:46:31.343Z,5.59
2023-02-11T07:47:31.234Z,5.62
2023-02-11T07:48:31.229Z,5.66
2023-02-11T07:49:31.188Z,5.66
2023-02-11T07:50:31.195Z,5.65
2023-02-11T07:51:31.247Z,5.66
2023-02-11T07:52:31.176Z,5.67
2023-02-11T07:53:31.175Z,5.67
2023-02-11T07:54:31.142Z,5.70
2023-02-11T07:55:31.280Z,5.73
2023-02-11T07:56:31.173Z,5.75
2023-02-11T07:57:31.118Z,5.75
2023-02-11T07:58:31.183Z,5.75
2023-02-11T07:59:31.100Z,5.75
2023-02-11T08:00:31.085Z,5.77
2023-02-11T08:01:31.083Z,5.74
2023-02-11T08:02:31.128Z,5.78
2023-02-11T08:03:31.141Z,5.81
2023-02-11T08:04:31.078Z,5.85
2023-02-11T08:05:31.029Z,5.87
2023-02-11T08:06:31.024Z,5.90
2023-02-11T08:07:30.984Z,5.88
2023-02-11T08:08:30.996Z,5.88
2023-02-11T08:09:34.129Z,5.88
2023-02-11T08:10:30.999Z,5.92
2023-02-11T08:11:30.989Z,5.95
2023-02-11T08:12:31.037Z,5.93
2023-02-11T08:13:30.916Z,5.95
2023-02-11T08:14:30.943Z,5.96
2023-02-11T08:15:31.065Z,5.99
2023-02-11T08:16:31.006Z,6.05
2023-02-11T08:17:30.889Z,6.08
2023-02-11T08:18:30.914Z,6.08
2023-02-11T08:19:32.033Z,6.05
2023-02-11T08:20:30.826Z,6.05
2023-02-11T08:21:30.800Z,6.03
2023-02-11T08:22:30.794Z,6.03
2023-02-11T08:23:30.770Z,6.06
2023-02-11T08:24:30.788Z,6.08
2023-02-11T08:25:30.744Z,6.10
2023-02-11T08:26:30.733Z,6.08
2023-02-11T08:27:30.738Z,6.10
2023-02-11T08:28:30.778Z,6.11
2023-02-11T08:29:30.890Z,6.11
2023-02-11T08:30:30.733Z,6.11
2023-02-11T08:31:30.862Z,6.14
2023-02-11T08:32:30.660Z,6.13
2023-02-11T08:33:30.655Z,6.11
2023-02-11T08:34:30.642Z,6.13
2023-02-11T08:35:30.607Z,6.10
2023-02-11T08:36:30.614Z,6.11
2023-02-11T08:37:32.990Z,6.10
2023-02-11T08:38:30.575Z,6.11
2023-02-11T08:39:30.560Z,6.08
2023-02-11T08:40:30.590Z,6.06
2023-02-11T08:41:30.559Z,6.05
2023-02-11T08:42:30.575Z,6.03
2023-02-11T08:43:30.569Z,6.06
2023-02-11T08:44:30.614Z,6.06
2023-02-11T08:45:30.597Z,6.06
2023-02-11T08:46:30.744Z,6.08
2023-02-11T08:47:30.644Z,6.06
2023-02-11T08:48:30.715Z,6.05
2023-02-11T08:49:30.486Z,6.05
2023-02-11T08:50:30.526Z,6.05
2023-02-11T08:51:30.831Z,6.05
2023-02-11T08:52:30.940Z,6.06
2023-02-11T08:53:30.948Z,6.06
2023-02-11T08:54:30.492Z,6.06
2023-02-11T08:55:30.396Z,6.05
2023-02-11T08:56:30.404Z,6.08
2023-02-11T08:57:30.380Z,6.08
2023-02-11T08:58:31.090Z,6.08
2023-02-11T08:59:30.574Z,6.08
2023-02-11T09:00:31.159Z,6.08
2023-02-11T09:01:31.088Z,6.10
2023-02-11T09:02:30.376Z,6.11
2023-02-11T09:03:31.043Z,6.10
2023-02-11T09:04:30.301Z,6.10
2023-02-11T09:05:31.340Z,6.11
2023-02-11T09:06:31.009Z,6.11
2023-02-11T09:07:30.249Z,6.11
2023-02-11T09:08:30.219Z,6.10
2023-02-11T09:09:30.206Z,6.11
2023-02-11T09:10:30.261Z,6.13
2023-02-11T09:11:30.449Z,6.11
2023-02-11T09:12:30.668Z,6.13
2023-02-11T09:13:30.940Z,6.14
2023-02-11T09:14:30.158Z,6.16
2023-02-11T09:15:30.455Z,6.16
2023-02-11T09:16:30.204Z,6.16
2023-02-11T09:17:30.080Z,6.16
2023-02-11T09:18:30.097Z,6.17
2023-02-11T09:19:30.142Z,6.17
2023-02-11T09:20:30.171Z,6.17
2023-02-11T09:21:30.047Z,6.19
2023-02-11T09:22:30.031Z,6.20
2023-02-11T09:23:30.060Z,6.21
2023-02-11T09:24:30.080Z,6.24
2023-02-11T09:25:30.144Z,6.25
2023-02-11T09:26:30.188Z,6.27
2023-02-11T09:27:30.169Z,6.27
2023-02-11T09:28:30.061Z,6.28
2023-02-11T09:29:29.970Z,6.28
2023-02-11T09:30:30.376Z,6.28
2023-02-11T09:31:30.423Z,6.32
2023-02-11T09:32:30.705Z,6.32
2023-02-11T09:33:30.122Z,6.32
2023-02-11T09:34:29.879Z,6.33
2023-02-11T09:35:30.255Z,6.33
2023-02-11T09:36:29.865Z,6.35
2023-02-11T09:37:30.023Z,6.35
2023-02-11T09:38:29.976Z,6.38
2023-02-11T09:39:29.965Z,6.39
2023-02-11T09:40:29.848Z,6.39
2023-02-11T09:41:29.771Z,6.39
2023-02-11T09:42:29.734Z,6.39
2023-02-11T09:43:29.788Z,6.36
2023-02-11T09:44:29.727Z,6.38
2023-02-11T09:45:29.717Z,6.39
2023-02-11T09:46:29.835Z,6.39
2023-02-11T09:47:29.704Z,6.42
2023-02-11T09:48:29.685Z,6.45
2023-02-11T09:49:29.810Z,6.45
2023-02-11T09:50:29.642Z,6.46
2023-02-11T09:51:29.647Z,6.50
2023-02-11T09:52:29.715Z,6.51
2023-02-11T09:53:29.644Z,6.53
2023-02-11T09:54:29.665Z,6.55
2023-02-11T09:55:29.593Z,6.55
2023-02-11T09:56:29.610Z,6.57
2023-02-11T09:57:29.580Z,6.61
2023-02-11T09:58:29.570Z,6.61
2023-02-11T09:59:29.556Z,6.61
2023-02-11T10:00:29.532Z,6.64
2023-02-11T10:01:29.624Z,6.64
2023-02-11T10:02:29.492Z,6.68
2023-02-11T10:03:29.574Z,6.68
2023-02-11T10:04:29.629Z,6.69
2023-02-11T10:05:29.468Z,6.72
2023-02-11T10:06:29.493Z,6.69
2023-02-11T10:07:29.468Z,6.68
2023-02-11T10:08:29.419Z,6.65
2023-02-11T10:09:29.453Z,6.65
2023-02-11T10:10:29.380Z,6.65
2023-02-11T10:11:31.869Z,6.68
2023-02-11T10:12:29.362Z,6.71
2023-02-11T10:13:29.380Z,6.69
2023-02-11T10:14:29.361Z,6.69
2023-02-11T10:15:29.387Z,6.71
2023-02-11T10:16:29.321Z,6.71
2023-02-11T10:17:29.350Z,6.69
2023-02-11T10:18:29.544Z,6.69
2023-02-11T10:19:29.282Z,6.69
2023-02-11T10:20:29.293Z,6.69
2023-02-11T10:21:29.281Z,6.68
2023-02-11T10:22:29.232Z,6.68
2023-02-11T10:23:29.241Z,6.68
2023-02-11T10:24:29.273Z,6.63
2023-02-11T10:25:29.876Z,6.64
2023-02-11T10:26:29.371Z,6.63
2023-02-11T10:27:29.190Z,6.64
2023-02-11T10:28:29.220Z,6.64
2023-02-11T10:29:29.170Z,6.64
2023-02-11T10:30:29.146Z,6.64
2023-02-11T10:31:29.299Z,6.63
2023-02-11T10:32:29.115Z,6.61
2023-02-11T10:33:29.137Z,6.60
2023-02-11T10:34:29.141Z,6.61
2023-02-11T10:35:29.906Z,6.61
2023-02-11T10:36:29.067Z,6.61
2023-02-11T10:37:29.065Z,6.61
2023-02-11T10:38:29.051Z,6.63
2023-02-11T10:39:29.036Z,6.63
2023-02-11T10:40:29.032Z,6.64
2023-02-11T10:41:29.024Z,6.64
2023-02-11T10:42:29.010Z,6.61
2023-02-11T10:43:28.984Z,6.61
2023-02-11T10:44:28.996Z,6.64
2023-02-11T10:45:29.156Z,6.63
2023-02-11T10:46:29.015Z,6.63
2023-02-11T10:47:28.957Z,6.63
2023-02-11T10:48:28.925Z,6.61
2023-02-11T10:49:28.916Z,6.61
2023-02-11T10:50:28.871Z,6.63
2023-02-11T10:51:28.897Z,6.63
2023-02-11T10:52:28.857Z,6.64
2023-02-11T10:53:28.906Z,6.64
2023-02-11T10:54:28.842Z,6.64
2023-02-11T10:55:28.856Z,6.61
2023-02-11T10:56:28.847Z,6.63
2023-02-11T10:57:28.800Z,6.63
2023-02-11T10:58:28.810Z,6.64
2023-02-11T10:59:28.847Z,6.63
2023-02-11T11:00:28.772Z,6.64
2023-02-11T11:01:28.972Z,6.65
2023-02-11T11:02:28.726Z,6.65
2023-02-11T11:03:28.773Z,6.65
2023-02-11T11:04:28.776Z,6.65
2023-02-11T11:05:28.726Z,6.65
2023-02-11T11:06:28.682Z,6.63
2023-02-11T11:07:28.733Z,6.68
2023-02-11T11:08:28.651Z,6.64
2023-02-11T11:09:28.654Z,6.65
2023-02-11T11:10:28.805Z,6.65
2023-02-11T11:11:28.624Z,6.68
2023-02-11T11:12:28.617Z,6.68
2023-02-11T11:13:28.624Z,6.65
2023-02-11T11:14:28.596Z,6.65
2023-02-11T11:15:28.590Z,6.65
2023-02-11T11:16:28.638Z,6.65
2023-02-11T11:17:28.579Z,6.68
2023-02-11T11:18:28.553Z,6.68
2023-02-11T11:19:28.522Z,6.68
2023-02-11T11:20:28.525Z,6.68
2023-02-11T11:21:28.497Z,6.69
2023-02-11T11:22:28.485Z,6.68
2023-02-11T11:23:28.495Z,6.68
2023-02-11T11:24:28.667Z,6.69
2023-02-11T11:25:28.481Z,6.65
2023-02-11T11:26:28.461Z,6.68
2023-02-11T11:27:28.424Z,6.65
2023-02-11T11:28:28.424Z,6.68
2023-02-11T11:29:28.441Z,6.65
2023-02-11T11:30:28.412Z,6.65
2023-02-11T11:31:28.571Z,6.65
2023-02-11T11:32:28.355Z,6.65
2023-02-11T11:33:28.382Z,6.65
2023-02-11T11:34:28.383Z,6.68
2023-02-11T11:35:28.370Z,6.65
2023-02-11T11:36:28.311Z,6.68
2023-02-11T11:37:28.287Z,6.69
2023-02-11T11:38:28.315Z,6.69
2023-02-11T11:39:28.272Z,6.68
2023-02-11T11:40:28.267Z,6.69
2023-02-11T11:41:28.260Z,6.68
2023-02-11T11:42:28.226Z,6.71
2023-02-11T11:43:28.239Z,6.68
2023-02-11T11:44:28.194Z,6.71
2023-02-11T11:45:28.220Z,6.71
2023-02-11T11:46:28.315Z,6.72
2023-02-11T11:47:28.169Z,6.72
2023-02-11T11:48:28.168Z,6.75
2023-02-11T11:49:28.155Z,6.75
2023-02-11T11:50:28.134Z,6.73
2023-02-11T11:51:28.117Z,6.76
2023-02-11T11:52:28.125Z,6.76
2023-02-11T11:53:28.104Z,6.75
2023-02-11T11:54:28.112Z,6.75
2023-02-11T11:55:28.086Z,6.75
2023-02-11T11:56:28.064Z,6.76
2023-02-11T11:57:28.038Z,6.79
2023-02-11T11:58:28.048Z,6.79
2023-02-11T11:59:28.049Z,6.82
2023-02-11T12:00:28.015Z,6.83
2023-02-11T12:01:28.026Z,6.82
2023-02-11T12:02:27.976Z,6.86
2023-02-11T12:03:28.078Z,6.86
2023-02-11T12:04:27.987Z,6.87
2023-02-11T12:05:27.929Z,6.87
2023-02-11T12:06:27.924Z,6.90
2023-02-11T12:07:27.930Z,6.90
2023-02-11T12:08:27.973Z,6.89
2023-02-11T12:09:27.874Z,6.91
2023-02-11T12:10:27.875Z,6.90
2023-02-11T12:11:27.863Z,6.90
2023-02-11T12:12:27.841Z,6.91
2023-02-11T12:13:27.842Z,6.94
2023-02-11T12:14:27.821Z,6.96
2023-02-11T12:15:27.818Z,6.94
2023-02-11T12:16:27.808Z,6.94
2023-02-11T12:17:27.785Z,6.97
2023-02-11T12:18:27.793Z,6.99
2023-02-11T12:19:27.800Z,7.00
2023-02-11T12:20:27.745Z,7.01
2023-02-11T12:21:27.756Z,7.01
2023-02-11T12:22:27.713Z,7.05
2023-02-11T12:23:27.732Z,7.05
2023-02-11T12:24:27.708Z,7.07
2023-02-11T12:25:27.677Z,7.08
2023-02-11T12:26:27.682Z,7.08
2023-02-11T12:27:27.681Z,7.08
2023-02-11T12:28:27.713Z,7.09
2023-02-11T12:29:27.643Z,7.08
2023-02-11T12:30:27.624Z,7.11
2023-02-11T12:31:27.774Z,7.11
2023-02-11T12:32:27.596Z,7.09
2023-02-11T12:33:27.601Z,7.08
2023-02-11T12:34:27.603Z,7.08
2023-02-11T12:35:27.562Z,7.11
2023-02-11T12:36:27.599Z,7.11
2023-02-11T12:37:27.568Z,7.09
2023-02-11T12:38:27.510Z,7.11
2023-02-11T12:39:27.516Z,7.11
2023-02-11T12:40:27.497Z,7.11
2023-02-11T12:41:27.479Z,7.11
2023-02-11T12:42:27.481Z,7.12
2023-02-11T12:43:27.465Z,7.12
2023-02-11T12:44:27.577Z,7.12
2023-02-11T12:45:27.571Z,7.15
2023-02-11T12:46:27.417Z,7.14
2023-02-11T12:47:27.472Z,7.14
2023-02-11T12:48:27.432Z,7.15
2023-02-11T12:49:27.585Z,7.15
2023-02-11T12:50:27.353Z,7.18
2023-02-11T12:51:27.361Z,7.19
2023-02-11T12:52:27.329Z,7.19
2023-02-11T12:53:27.326Z,7.23
2023-02-11T12:54:27.453Z,7.23
2023-02-11T12:55:27.313Z,7.24
2023-02-11T12:56:27.304Z,7.23
2023-02-11T12:57:27.319Z,7.21
2023-02-11T12:58:35.522Z,7.23
2023-02-11T12:59:28.344Z,7.23
2023-02-11T13:00:27.247Z,7.26
2023-02-11T13:01:27.259Z,7.26
2023-02-11T13:02:27.260Z,7.27
2023-02-11T13:03:27.214Z,7.26
2023-02-11T13:04:27.173Z,7.27
2023-02-11T13:05:27.173Z,7.29
2023-02-11T13:06:27.146Z,7.26
2023-02-11T13:07:27.136Z,7.26
2023-02-11T13:08:27.120Z,7.24
2023-02-11T13:09:27.162Z,7.26
2023-02-11T13:10:27.129Z,7.27
2023-02-11T13:11:27.113Z,7.26
2023-02-11T13:12:27.099Z,7.27
2023-02-11T13:13:27.078Z,7.27
2023-02-11T13:14:27.068Z,7.24
2023-02-11T13:15:27.041Z,7.24
2023-02-11T13:16:27.109Z,7.24
2023-02-11T13:17:27.045Z,7.23
2023-02-11T13:18:27.008Z,7.23